sensor_id;sensor_type;location;lat;lon;timestamp;pressure;altitude;pressure_sealevel;temperature;humidity
60918;BME280;46792;38.854;-9.384;2023-03-16T00:01:21;99082.28;;;13.37;100.00
60918;BME280;46792;38.854;-9.384;2023-03-16T00:03:21;99088.56;;;13.33;100.00
60918;BME280;46792;38.854;-9.384;2023-03-16T00:05:22;99087.06;;;13.27;100.00
60918;BME280;46792;38.854;-9.384;2023-03-16T00:07:25;99087.84;;;13.27;100.00
60918;BME280;46792;38.854;-9.384;2023-03-16T00:09:44;99084.63;;;13.25;100.00
60918;BME280;46792;38.854;-9.384;2023-03-16T00:11:45;99082.50;;;13.22;100.00
60918;BME280;46792;38.854;-9.384;2023-03-16T00:13:45;99076.34;;;13.16;100.00
60918;BME280;46792;38.854;-9.384;2023-03-16T00:15:53;99086.44;;;13.11;100.00
60918;BME280;46792;38.854;-9.384;2023-03-16T00:17:55;99080.88;;;13.02;100.00
60918;BME280;46792;38.854;-9.384;2023-03-16T00:19:56;99081.47;;;12.99;100.00
60918;BME280;46792;38.854;-9.384;2023-03-16T00:21:57;99078.47;;;13.00;100.00
60918;BME280;46792;38.854;-9.384;2023-03-16T00:23:57;99070.75;;;12.88;100.00
60918;BME280;46792;38.854;-9.384;2023-03-16T00:25:59;99081.31;;;12.90;100.00
60918;BME280;46792;38.854;-9.384;2023-03-16T00:28:02;99084.59;;;12.87;100.00
60918;BME280;46792;38.854;-9.384;2023-03-16T00:30:03;99085.13;;;12.89;100.00
60918;BME280;46792;38.854;-9.384;2023-03-16T00:32:05;99075.97;;;12.85;100.00
60918;BME280;46792;38.854;-9.384;2023-03-16T00:34:24;99070.47;;;12.90;100.00
60918;BME280;46792;38.854;-9.384;2023-03-16T00:36:25;99062.56;;;12.93;100.00
60918;BME280;46792;38.854;-9.384;2023-03-16T00:38:25;99053.75;;;12.83;100.00
60918;BME280;46792;38.854;-9.384;2023-03-16T00:40:27;99049.16;;;12.83;100.00
60918;BME280;46792;38.854;-9.384;2023-03-16T00:42:28;99049.97;;;12.84;100.00
60918;BME280;46792;38.854;-9.384;2023-03-16T00:44:29;99048.34;;;12.83;99.03
60918;BME280;46792;38.854;-9.384;2023-03-16T00:46:31;99045.59;;;12.88;98.47
60918;BME280;46792;38.854;-9.384;2023-03-16T00:48:33;99043.31;;;12.95;96.91
60918;BME280;46792;38.854;-9.384;2023-03-16T00:50:34;99044.84;;;12.82;96.39
60918;BME280;46792;38.854;-9.384;2023-03-16T00:52:35;99041.91;;;12.78;95.96
60918;BME280;46792;38.854;-9.384;2023-03-16T00:54:35;99046.78;;;12.76;94.80
60918;BME280;46792;38.854;-9.384;2023-03-16T00:56:36;99035.91;;;12.82;93.10
60918;BME280;46792;38.854;-9.384;2023-03-16T00:58:39;99041.38;;;12.76;93.38
60918;BME280;46792;38.854;-9.384;2023-03-16T01:00:44;99047.63;;;12.77;92.06
60918;BME280;46792;38.854;-9.384;2023-03-16T01:02:45;99046.00;;;12.76;90.33
60918;BME280;46792;38.854;-9.384;2023-03-16T01:04:46;99039.69;;;12.61;89.83
60918;BME280;46792;38.854;-9.384;2023-03-16T01:06:47;99040.59;;;12.52;90.35
60918;BME280;46792;38.854;-9.384;2023-03-16T01:08:48;99047.50;;;12.63;90.15
60918;BME280;46792;38.854;-9.384;2023-03-16T01:10:49;99043.91;;;12.68;89.68
60918;BME280;46792;38.854;-9.384;2023-03-16T01:13:08;99042.97;;;12.58;90.26
60918;BME280;46792;38.854;-9.384;2023-03-16T01:15:09;99045.22;;;12.51;89.57
60918;BME280;46792;38.854;-9.384;2023-03-16T01:17:10;99046.81;;;12.52;90.19
60918;BME280;46792;38.854;-9.384;2023-03-16T01:19:16;99042.75;;;12.55;90.62
60918;BME280;46792;38.854;-9.384;2023-03-16T01:21:17;99048.69;;;12.57;89.73
60918;BME280;46792;38.854;-9.384;2023-03-16T01:23:19;99035.41;;;12.55;90.01
60918;BME280;46792;38.854;-9.384;2023-03-16T01:25:20;99040.47;;;12.62;90.17
60918;BME280;46792;38.854;-9.384;2023-03-16T01:27:20;99031.72;;;12.70;90.33
60918;BME280;46792;38.854;-9.384;2023-03-16T01:29:40;99028.78;;;12.67;91.90
60918;BME280;46792;38.854;-9.384;2023-03-16T01:37:00;99035.06;;;12.62;93.48
60918;BME280;46792;38.854;-9.384;2023-03-16T01:39:16;99030.38;;;12.68;92.98
60918;BME280;46792;38.854;-9.384;2023-03-16T01:41:20;99038.81;;;12.85;92.18
60918;BME280;46792;38.854;-9.384;2023-03-16T01:43:23;99027.41;;;12.88;92.29
60918;BME280;46792;38.854;-9.384;2023-03-16T01:48:02;99030.13;;;12.88;93.72
60918;BME280;46792;38.854;-9.384;2023-03-16T01:50:04;99029.31;;;12.88;94.43
60918;BME280;46792;38.854;-9.384;2023-03-16T01:52:43;99026.16;;;12.81;96.37
60918;BME280;46792;38.854;-9.384;2023-03-16T01:54:50;99026.53;;;12.74;97.33
60918;BME280;46792;38.854;-9.384;2023-03-16T01:56:56;99032.28;;;12.67;98.77
60918;BME280;46792;38.854;-9.384;2023-03-16T01:58:58;99025.84;;;12.63;99.11
60918;BME280;46792;38.854;-9.384;2023-03-16T02:01:01;99018.91;;;12.57;99.76
60918;BME280;46792;38.854;-9.384;2023-03-16T02:03:23;99021.00;;;12.60;100.00
60918;BME280;46792;38.854;-9.384;2023-03-16T02:05:38;99016.72;;;12.59;100.00
60918;BME280;46792;38.854;-9.384;2023-03-16T02:07:46;99013.91;;;12.64;100.00
60918;BME280;46792;38.854;-9.384;2023-03-16T02:09:50;99011.78;;;12.61;100.00
60918;BME280;46792;38.854;-9.384;2023-03-16T02:11:53;99012.75;;;12.70;100.00
60918;BME280;46792;38.854;-9.384;2023-03-16T02:13:57;99003.38;;;12.62;100.00
60918;BME280;46792;38.854;-9.384;2023-03-16T02:16:04;99007.94;;;12.67;100.00
60918;BME280;46792;38.854;-9.384;2023-03-16T02:18:06;99011.44;;;12.68;100.00
60918;BME280;46792;38.854;-9.384;2023-03-16T02:20:49;99019.13;;;12.60;100.00
60918;BME280;46792;38.854;-9.384;2023-03-16T02:22:52;99008.06;;;12.57;100.00
60918;BME280;46792;38.854;-9.384;2023-03-16T02:24:53;99004.75;;;12.60;100.00
60918;BME280;46792;38.854;-9.384;2023-03-16T02:26:57;99007.97;;;12.62;100.00
60918;BME280;46792;38.854;-9.384;2023-03-16T02:31:18;99004.69;;;12.65;100.00
60918;BME280;46792;38.854;-9.384;2023-03-16T02:33:20;98984.94;;;12.65;100.00
60918;BME280;46792;38.854;-9.384;2023-03-16T02:35:23;98984.72;;;12.61;100.00
60918;BME280;46792;38.854;-9.384;2023-03-16T02:37:25;98988.75;;;12.63;100.00
60918;BME280;46792;38.854;-9.384;2023-03-16T02:39:26;98979.22;;;12.66;100.00
60918;BME280;46792;38.854;-9.384;2023-03-16T02:41:27;98980.31;;;12.65;100.00
60918;BME280;46792;38.854;-9.384;2023-03-16T02:43:33;98980.63;;;12.63;100.00
60918;BME280;46792;38.854;-9.384;2023-03-16T02:45:59;98978.19;;;12.62;100.00
60918;BME280;46792;38.854;-9.384;2023-03-16T02:48:08;98961.22;;;12.56;100.00
60918;BME280;46792;38.854;-9.384;2023-03-16T02:50:16;98963.34;;;12.59;100.00
60918;BME280;46792;38.854;-9.384;2023-03-16T02:52:16;98954.19;;;12.55;100.00
60918;BME280;46792;38.854;-9.384;2023-03-16T02:54:18;98957.72;;;12.56;100.00
60918;BME280;46792;38.854;-9.384;2023-03-16T02:56:18;98962.63;;;12.54;100.00
60918;BME280;46792;38.854;-9.384;2023-03-16T02:58:19;98954.56;;;12.48;100.00
60918;BME280;46792;38.854;-9.384;2023-03-16T03:00:21;98956.69;;;12.52;100.00
60918;BME280;46792;38.854;-9.384;2023-03-16T03:02:24;98942.94;;;12.48;100.00
60918;BME280;46792;38.854;-9.384;2023-03-16T03:04:25;98945.13;;;12.46;100.00
60918;BME280;46792;38.854;-9.384;2023-03-16T03:06:26;98937.38;;;12.39;100.00
60918;BME280;46792;38.854;-9.384;2023-03-16T03:08:27;98929.16;;;12.44;100.00
60918;BME280;46792;38.854;-9.384;2023-03-16T03:10:28;98925.34;;;12.45;100.00
60918;BME280;46792;38.854;-9.384;2023-03-16T03:12:33;98922.06;;;12.48;100.00
60918;BME280;46792;38.854;-9.384;2023-03-16T03:14:35;98918.06;;;12.46;100.00
60918;BME280;46792;38.854;-9.384;2023-03-16T03:16:39;98910.50;;;12.43;100.00
60918;BME280;46792;38.854;-9.384;2023-03-16T03:18:39;98921.19;;;12.34;100.00
60918;BME280;46792;38.854;-9.384;2023-03-16T03:20:40;98912.03;;;12.30;100.00
60918;BME280;46792;38.854;-9.384;2023-03-16T03:22:42;98913.13;;;12.29;100.00
60918;BME280;46792;38.854;-9.384;2023-03-16T03:24:47;98915.34;;;12.27;100.00
60918;BME280;46792;38.854;-9.384;2023-03-16T03:26:47;98910.50;;;12.24;100.00
60918;BME280;46792;38.854;-9.384;2023-03-16T03:28:53;98901.91;;;12.16;100.00
60918;BME280;46792;38.854;-9.384;2023-03-16T03:30:54;98897.38;;;12.12;100.00
60918;BME280;46792;38.854;-9.384;2023-03-16T03:32:54;98901.22;;;12.06;100.00
60918;BME280;46792;38.854;-9.384;2023-03-16T03:34:55;98903.16;;;12.05;100.00
60918;BME280;46792;38.854;-9.384;2023-03-16T03:36:56;98899.63;;;12.05;100.00
60918;BME280;46792;38.854;-9.384;2023-03-16T03:38:57;98900.50;;;12.00;100.00
60918;BME280;46792;38.854;-9.384;2023-03-16T03:43:17;98904.03;;;11.95;100.00
60918;BME280;46792;38.854;-9.384;2023-03-16T03:45:19;98893.00;;;11.92;100.00
60918;BME280;46792;38.854;-9.384;2023-03-16T03:47:20;98883.84;;;11.87;100.00
60918;BME280;46792;38.854;-9.384;2023-03-16T03:49:21;98885.16;;;11.90;100.00
60918;BME280;46792;38.854;-9.384;2023-03-16T03:51:23;98881.94;;;11.88;100.00
60918;BME280;46792;38.854;-9.384;2023-03-16T03:53:33;98884.94;;;11.86;100.00
60918;BME280;46792;38.854;-9.384;2023-03-16T03:55:56;98882.81;;;11.83;100.00
60918;BME280;46792;38.854;-9.384;2023-03-16T03:57:57;98877.47;;;11.78;100.00
60918;BME280;46792;38.854;-9.384;2023-03-16T03:59:58;98879.94;;;11.75;100.00
60918;BME280;46792;38.854;-9.384;2023-03-16T04:02:17;98867.44;;;11.79;100.00
60918;BME280;46792;38.854;-9.384;2023-03-16T04:04:27;98867.44;;;11.79;100.00
60918;BME280;46792;38.854;-9.384;2023-03-16T04:06:28;98869.84;;;11.80;100.00
60918;BME280;46792;38.854;-9.384;2023-03-16T04:08:29;98873.91;;;11.83;100.00
60918;BME280;46792;38.854;-9.384;2023-03-16T04:10:30;98866.00;;;11.86;100.00
60918;BME280;46792;38.854;-9.384;2023-03-16T04:12:31;98857.91;;;11.86;100.00
60918;BME280;46792;38.854;-9.384;2023-03-16T04:14:32;98868.66;;;11.92;100.00
60918;BME280;46792;38.854;-9.384;2023-03-16T04:16:52;98863.78;;;11.94;100.00
60918;BME280;46792;38.854;-9.384;2023-03-16T04:18:55;98859.16;;;11.94;100.00
60918;BME280;46792;38.854;-9.384;2023-03-16T04:20:57;98864.56;;;11.94;100.00
60918;BME280;46792;38.854;-9.384;2023-03-16T04:22:59;98864.56;;;11.94;100.00
60918;BME280;46792;38.854;-9.384;2023-03-16T04:24:59;98855.59;;;11.99;100.00
60918;BME280;46792;38.854;-9.384;2023-03-16T04:27:03;98865.34;;;12.00;100.00
60918;BME280;46792;38.854;-9.384;2023-03-16T04:29:04;98861.84;;;11.99;100.00
60918;BME280;46792;38.854;-9.384;2023-03-16T04:31:08;98864.25;;;12.01;100.00
60918;BME280;46792;38.854;-9.384;2023-03-16T04:33:15;98855.34;;;11.95;100.00
60918;BME280;46792;38.854;-9.384;2023-03-16T04:35:17;98855.03;;;12.02;100.00
60918;BME280;46792;38.854;-9.384;2023-03-16T04:37:22;98858.56;;;12.02;100.00
60918;BME280;46792;38.854;-9.384;2023-03-16T04:39:23;98859.66;;;12.01;100.00
60918;BME280;46792;38.854;-9.384;2023-03-16T04:41:24;98853.41;;;12.01;100.00
60918;BME280;46792;38.854;-9.384;2023-03-16T04:43:32;98860.75;;;11.95;100.00
60918;BME280;46792;38.854;-9.384;2023-03-16T04:45:38;98852.13;;;11.93;100.00
60918;BME280;46792;38.854;-9.384;2023-03-16T04:47:39;98855.13;;;11.92;100.00
60918;BME280;46792;38.854;-9.384;2023-03-16T04:49:40;98852.50;;;11.86;100.00
60918;BME280;46792;38.854;-9.384;2023-03-16T04:51:41;98855.50;;;11.85;100.00
60918;BME280;46792;38.854;-9.384;2023-03-16T04:53:44;98861.47;;;11.82;100.00
60918;BME280;46792;38.854;-9.384;2023-03-16T04:56:04;98860.22;;;11.74;100.00
60918;BME280;46792;38.854;-9.384;2023-03-16T04:58:07;98857.56;;;11.69;100.00
60918;BME280;46792;38.854;-9.384;2023-03-16T05:00:12;98856.81;;;11.63;100.00
60918;BME280;46792;38.854;-9.384;2023-03-16T05:02:24;98864.41;;;11.61;100.00
60918;BME280;46792;38.854;-9.384;2023-03-16T05:07:04;98867.69;;;11.58;100.00
60918;BME280;46792;38.854;-9.384;2023-03-16T05:09:09;98866.53;;;11.64;100.00
60918;BME280;46792;38.854;-9.384;2023-03-16T05:11:11;98866.31;;;11.61;100.00
60918;BME280;46792;38.854;-9.384;2023-03-16T05:13:21;98867.41;;;11.60;100.00
60918;BME280;46792;38.854;-9.384;2023-03-16T05:15:24;98868.19;;;11.60;100.00
60918;BME280;46792;38.854;-9.384;2023-03-16T05:17:35;98865.22;;;11.62;100.00
60918;BME280;46792;38.854;-9.384;2023-03-16T05:19:37;98854.41;;;11.62;100.00
60918;BME280;46792;38.854;-9.384;2023-03-16T05:21:38;98850.31;;;11.64;100.00
60918;BME280;46792;38.854;-9.384;2023-03-16T05:23:41;98851.88;;;11.70;100.00
60918;BME280;46792;38.854;-9.384;2023-03-16T05:25:42;98857.00;;;11.72;100.00
60918;BME280;46792;38.854;-9.384;2023-03-16T05:27:48;98849.22;;;11.65;100.00
60918;BME280;46792;38.854;-9.384;2023-03-16T05:29:56;98855.72;;;11.64;100.00
60918;BME280;46792;38.854;-9.384;2023-03-16T05:31:57;98856.53;;;11.65;100.00
60918;BME280;46792;38.854;-9.384;2023-03-16T05:34:00;98852.81;;;11.61;100.00
60918;BME280;46792;38.854;-9.384;2023-03-16T05:36:02;98853.06;;;11.59;100.00
60918;BME280;46792;38.854;-9.384;2023-03-16T05:38:22;98859.31;;;11.60;100.00
60918;BME280;46792;38.854;-9.384;2023-03-16T05:40:41;98847.97;;;11.57;100.00
60918;BME280;46792;38.854;-9.384;2023-03-16T05:42:55;98844.16;;;11.59;100.00
60918;BME280;46792;38.854;-9.384;2023-03-16T05:44:57;98844.16;;;11.59;100.00
60918;BME280;46792;38.854;-9.384;2023-03-16T05:47:05;98833.06;;;11.60;100.00
60918;BME280;46792;38.854;-9.384;2023-03-16T05:49:09;98835.25;;;11.58;100.00
60918;BME280;46792;38.854;-9.384;2023-03-16T05:51:15;98841.47;;;11.59;100.00
60918;BME280;46792;38.854;-9.384;2023-03-16T05:53:17;98832.25;;;11.60;100.00
60918;BME280;46792;38.854;-9.384;2023-03-16T05:55:18;98832.84;;;11.56;100.00
60918;BME280;46792;38.854;-9.384;2023-03-16T05:57:23;98833.34;;;11.59;100.00
60918;BME280;46792;38.854;-9.384;2023-03-16T05:59:26;98842.25;;;11.59;100.00
60918;BME280;46792;38.854;-9.384;2023-03-16T06:01:45;98841.47;;;11.59;100.00
60918;BME280;46792;38.854;-9.384;2023-03-16T06:03:47;98846.06;;;11.58;100.00
60918;BME280;46792;38.854;-9.384;2023-03-16T06:05:52;98847.44;;;11.55;100.00
60918;BME280;46792;38.854;-9.384;2023-03-16T06:08:01;98846.88;;;11.59;100.00
60918;BME280;46792;38.854;-9.384;2023-03-16T06:10:03;98857.13;;;11.62;100.00
60918;BME280;46792;38.854;-9.384;2023-03-16T06:12:06;98856.53;;;11.65;100.00
60918;BME280;46792;38.854;-9.384;2023-03-16T06:14:07;98862.41;;;11.72;100.00
60918;BME280;46792;38.854;-9.384;2023-03-16T06:16:08;98862.63;;;11.76;100.00
60918;BME280;46792;38.854;-9.384;2023-03-16T06:18:10;98857.22;;;11.76;100.00
60918;BME280;46792;38.854;-9.384;2023-03-16T06:20:12;98867.16;;;11.80;100.00
60918;BME280;46792;38.854;-9.384;2023-03-16T06:22:15;98868.78;;;11.81;100.00
60918;BME280;46792;38.854;-9.384;2023-03-16T06:24:17;98862.56;;;11.81;100.00
60918;BME280;46792;38.854;-9.384;2023-03-16T06:26:25;98862.84;;;11.79;100.00
60918;BME280;46792;38.854;-9.384;2023-03-16T06:28:26;98871.41;;;11.86;100.00
60918;BME280;46792;38.854;-9.384;2023-03-16T06:30:27;98870.91;;;11.84;100.00
60918;BME280;46792;38.854;-9.384;2023-03-16T06:35:06;98875.22;;;11.85;100.00
60918;BME280;46792;38.854;-9.384;2023-03-16T06:37:07;98877.91;;;11.85;100.00
60918;BME280;46792;38.854;-9.384;2023-03-16T06:39:08;98875.16;;;11.91;100.00
60918;BME280;46792;38.854;-9.384;2023-03-16T06:41:27;98873.34;;;11.86;100.00
60918;BME280;46792;38.854;-9.384;2023-03-16T06:43:46;98875.53;;;11.84;100.00
60918;BME280;46792;38.854;-9.384;2023-03-16T06:45:46;98865.84;;;11.78;100.00
60918;BME280;46792;38.854;-9.384;2023-03-16T06:47:48;98874.78;;;11.78;100.00
60918;BME280;46792;38.854;-9.384;2023-03-16T06:49:49;98881.50;;;11.81;100.00
60918;BME280;46792;38.854;-9.384;2023-03-16T06:51:54;98878.06;;;11.75;100.00
60918;BME280;46792;38.854;-9.384;2023-03-16T06:54:17;98890.81;;;11.69;100.00
60918;BME280;46792;38.854;-9.384;2023-03-16T06:56:17;98884.59;;;11.69;100.00
60918;BME280;46792;38.854;-9.384;2023-03-16T07:01:01;98895.72;;;11.67;100.00
60918;BME280;46792;38.854;-9.384;2023-03-16T07:03:02;98886.22;;;11.70;100.00
60918;BME280;46792;38.854;-9.384;2023-03-16T07:05:04;98890.56;;;11.66;100.00
60918;BME280;46792;38.854;-9.384;2023-03-16T07:07:23;98890.88;;;11.64;100.00
60918;BME280;46792;38.854;-9.384;2023-03-16T07:09:24;98893.00;;;11.67;100.00
60918;BME280;46792;38.854;-9.384;2023-03-16T07:11:43;98882.97;;;11.68;100.00
60918;BME280;46792;38.854;-9.384;2023-03-16T07:13:44;98895.72;;;11.67;100.00
60918;BME280;46792;38.854;-9.384;2023-03-16T07:18:23;98910.38;;;11.61;100.00
60918;BME280;46792;38.854;-9.384;2023-03-16T07:20:25;98910.59;;;11.65;100.00
60918;BME280;46792;38.854;-9.384;2023-03-16T07:22:28;98912.19;;;11.66;100.00
60918;BME280;46792;38.854;-9.384;2023-03-16T07:24:29;98921.41;;;11.65;100.00
60918;BME280;46792;38.854;-9.384;2023-03-16T07:26:30;98918.22;;;11.63;100.00
60918;BME280;46792;38.854;-9.384;2023-03-16T07:28:34;98910.38;;;11.61;100.00
60918;BME280;46792;38.854;-9.384;2023-03-16T07:30:36;98917.38;;;11.62;100.00
60918;BME280;46792;38.854;-9.384;2023-03-16T07:32:39;98920.84;;;11.68;100.00
60918;BME280;46792;38.854;-9.384;2023-03-16T07:34:41;98923.03;;;11.66;100.00
60918;BME280;46792;38.854;-9.384;2023-03-16T07:37:00;98925.69;;;11.71;100.00
60918;BME280;46792;38.854;-9.384;2023-03-16T07:39:04;98926.75;;;11.70;100.00
60918;BME280;46792;38.854;-9.384;2023-03-16T07:41:07;98931.88;;;11.71;100.00
60918;BME280;46792;38.854;-9.384;2023-03-16T07:43:09;98944.56;;;11.76;100.00
60918;BME280;46792;38.854;-9.384;2023-03-16T07:45:19;98947.50;;;11.80;100.00
60918;BME280;46792;38.854;-9.384;2023-03-16T07:47:20;98950.94;;;11.85;100.00
60918;BME280;46792;38.854;-9.384;2023-03-16T07:49:26;98946.09;;;11.82;100.00
60918;BME280;46792;38.854;-9.384;2023-03-16T07:51:45;98946.28;;;11.91;100.00
60918;BME280;46792;38.854;-9.384;2023-03-16T07:53:47;98959.44;;;12.03;100.00
60918;BME280;46792;38.854;-9.384;2023-03-16T07:56:00;98961.78;;;12.10;100.00
60918;BME280;46792;38.854;-9.384;2023-03-16T07:58:01;98962.53;;;12.15;100.00
60918;BME280;46792;38.854;-9.384;2023-03-16T08:00:09;98969.47;;;12.27;100.00
60918;BME280;46792;38.854;-9.384;2023-03-16T08:02:20;98975.47;;;12.43;100.00
60918;BME280;46792;38.854;-9.384;2023-03-16T08:04:22;98975.28;;;12.58;100.00
60918;BME280;46792;38.854;-9.384;2023-03-16T08:06:25;98963.50;;;12.68;100.00
60918;BME280;46792;38.854;-9.384;2023-03-16T08:08:27;98952.25;;;12.80;100.00
60918;BME280;46792;38.854;-9.384;2023-03-16T08:10:29;98956.47;;;13.05;100.00
60918;BME280;46792;38.854;-9.384;2023-03-16T08:12:51;98961.16;;;13.33;100.00
60918;BME280;46792;38.854;-9.384;2023-03-16T08:14:52;98953.81;;;13.52;100.00
60918;BME280;46792;38.854;-9.384;2023-03-16T08:17:00;98960.91;;;13.67;100.00
60918;BME280;46792;38.854;-9.384;2023-03-16T08:19:01;98945.31;;;13.73;100.00
60918;BME280;46792;38.854;-9.384;2023-03-16T08:21:03;98941.03;;;13.86;100.00
60918;BME280;46792;38.854;-9.384;2023-03-16T08:23:05;98952.25;;;13.93;100.00
60918;BME280;46792;38.854;-9.384;2023-03-16T08:25:12;98950.97;;;13.91;100.00
60918;BME280;46792;38.854;-9.384;2023-03-16T08:27:26;98959.31;;;13.94;100.00
60918;BME280;46792;38.854;-9.384;2023-03-16T08:29:33;98958.50;;;13.94;100.00
60918;BME280;46792;38.854;-9.384;2023-03-16T08:31:34;98963.63;;;13.95;100.00
60918;BME280;46792;38.854;-9.384;2023-03-16T08:33:46;98967.34;;;13.99;100.00
60918;BME280;46792;38.854;-9.384;2023-03-16T08:35:50;98963.72;;;14.04;100.00
60918;BME280;46792;38.854;-9.384;2023-03-16T08:37:50;98971.47;;;14.11;100.00
60918;BME280;46792;38.854;-9.384;2023-03-16T08:39:52;98968.94;;;14.14;100.00
60918;BME280;46792;38.854;-9.384;2023-03-16T08:41:53;98963.13;;;14.21;100.00
60918;BME280;46792;38.854;-9.384;2023-03-16T08:44:18;98958.69;;;14.25;100.00
60918;BME280;46792;38.854;-9.384;2023-03-16T08:46:19;98958.41;;;14.27;100.00
60918;BME280;46792;38.854;-9.384;2023-03-16T08:48:26;98966.56;;;14.27;100.00
60918;BME280;46792;38.854;-9.384;2023-03-16T08:50:28;98958.09;;;14.28;100.00
60918;BME280;46792;38.854;-9.384;2023-03-16T08:52:28;98969.16;;;14.32;100.00
60918;BME280;46792;38.854;-9.384;2023-03-16T08:54:31;98966.34;;;14.37;100.00
60918;BME280;46792;38.854;-9.384;2023-03-16T08:56:34;98972.78;;;14.41;100.00
60918;BME280;46792;38.854;-9.384;2023-03-16T08:58:35;98976.28;;;14.42;100.00
60918;BME280;46792;38.854;-9.384;2023-03-16T09:00:37;98977.38;;;14.41;100.00
60918;BME280;46792;38.854;-9.384;2023-03-16T09:02:41;98981.53;;;14.38;100.00
60918;BME280;46792;38.854;-9.384;2023-03-16T09:04:42;98975.59;;;14.36;100.00
60918;BME280;46792;38.854;-9.384;2023-03-16T09:06:43;98981.44;;;14.29;100.00
60918;BME280;46792;38.854;-9.384;2023-03-16T09:08:43;98986.44;;;14.22;100.00
60918;BME280;46792;38.854;-9.384;2023-03-16T09:10:45;98986.84;;;14.29;100.00
60918;BME280;46792;38.854;-9.384;2023-03-16T09:12:46;98988.66;;;14.34;100.00
60918;BME280;46792;38.854;-9.384;2023-03-16T09:14:46;98981.63;;;14.47;100.00
60918;BME280;46792;38.854;-9.384;2023-03-16T09:16:48;98981.69;;;14.70;100.00
60918;BME280;46792;38.854;-9.384;2023-03-16T09:18:48;98987.72;;;14.81;100.00
60918;BME280;46792;38.854;-9.384;2023-03-16T09:20:49;98986.06;;;14.94;100.00
60918;BME280;46792;38.854;-9.384;2023-03-16T09:22:50;98985.78;;;15.18;100.00
60918;BME280;46792;38.854;-9.384;2023-03-16T09:24:51;98982.69;;;15.33;100.00
60918;BME280;46792;38.854;-9.384;2023-03-16T09:26:52;98997.66;;;15.45;100.00
60918;BME280;46792;38.854;-9.384;2023-03-16T09:28:52;98998.44;;;15.68;99.45
60918;BME280;46792;38.854;-9.384;2023-03-16T09:30:54;98988.03;;;15.70;97.26
60918;BME280;46792;38.854;-9.384;2023-03-16T09:32:55;98989.53;;;15.76;97.73
60918;BME280;46792;38.854;-9.384;2023-03-16T09:34:56;98977.19;;;15.79;97.76
60918;BME280;46792;38.854;-9.384;2023-03-16T09:36:57;98981.59;;;15.89;97.01
60918;BME280;46792;38.854;-9.384;2023-03-16T09:38:57;98971.53;;;15.98;96.15
60918;BME280;46792;38.854;-9.384;2023-03-16T09:41:02;98953.00;;;16.09;95.75
60918;BME280;46792;38.854;-9.384;2023-03-16T09:47:55;98951.78;;;16.24;93.64
60918;BME280;46792;38.854;-9.384;2023-03-16T09:50:00;98955.50;;;16.28;92.92
60918;BME280;46792;38.854;-9.384;2023-03-16T09:54:45;98930.34;;;16.49;92.07
60918;BME280;46792;38.854;-9.384;2023-03-16T09:56:49;98933.09;;;16.66;90.56
60918;BME280;46792;38.854;-9.384;2023-03-16T09:58:51;98916.59;;;16.71;89.52
60918;BME280;46792;38.854;-9.384;2023-03-16T10:05:45;98916.59;;;16.89;88.51
60918;BME280;46792;38.854;-9.384;2023-03-16T10:12:42;98930.69;;;17.09;86.33
60918;BME280;46792;38.854;-9.384;2023-03-16T10:14:55;98939.34;;;17.20;86.02
60918;BME280;46792;38.854;-9.384;2023-03-16T10:17:04;98940.97;;;17.21;83.33
60918;BME280;46792;38.854;-9.384;2023-03-16T10:21:14;98948.81;;;17.40;83.04
60918;BME280;46792;38.854;-9.384;2023-03-16T10:23:21;98954.56;;;17.47;82.81
60918;BME280;46792;38.854;-9.384;2023-03-16T10:25:48;98947.63;;;17.58;80.98
60918;BME280;46792;38.854;-9.384;2023-03-16T10:27:49;98941.81;;;17.69;80.79
60918;BME280;46792;38.854;-9.384;2023-03-16T10:29:50;98941.81;;;17.69;80.48
60918;BME280;46792;38.854;-9.384;2023-03-16T10:31:50;98938.09;;;17.82;80.85
60918;BME280;46792;38.854;-9.384;2023-03-16T10:33:55;98936.00;;;17.79;80.96
60918;BME280;46792;38.854;-9.384;2023-03-16T10:40:35;98923.97;;;17.71;79.42
60918;BME280;46792;38.854;-9.384;2023-03-16T10:42:38;98913.03;;;17.80;78.89
60918;BME280;46792;38.854;-9.384;2023-03-16T10:44:39;98900.81;;;17.86;77.28
60918;BME280;46792;38.854;-9.384;2023-03-16T10:48:58;98895.44;;;17.69;78.34
60918;BME280;46792;38.854;-9.384;2023-03-16T10:51:02;98896.81;;;17.75;78.92
60918;BME280;46792;38.854;-9.384;2023-03-16T10:53:15;98890.38;;;17.88;78.80
60918;BME280;46792;38.854;-9.384;2023-03-16T10:55:26;98891.88;;;18.07;78.52
60918;BME280;46792;38.854;-9.384;2023-03-16T10:57:34;98895.50;;;18.20;77.84
60918;BME280;46792;38.854;-9.384;2023-03-16T10:59:35;98888.34;;;18.36;75.76
60918;BME280;46792;38.854;-9.384;2023-03-16T11:01:37;98879.94;;;18.42;75.74
60918;BME280;46792;38.854;-9.384;2023-03-16T11:03:40;98881.00;;;18.49;74.61
60918;BME280;46792;38.854;-9.384;2023-03-16T11:05:40;98876.88;;;18.43;74.88
60918;BME280;46792;38.854;-9.384;2023-03-16T11:08:01;98870.81;;;18.37;75.58
60918;BME280;46792;38.854;-9.384;2023-03-16T11:12:30;98873.13;;;18.48;74.55
60918;BME280;46792;38.854;-9.384;2023-03-16T11:14:32;98877.81;;;18.47;75.18
60918;BME280;46792;38.854;-9.384;2023-03-16T11:16:38;98872.75;;;18.58;75.49
60918;BME280;46792;38.854;-9.384;2023-03-16T11:18:43;98852.44;;;18.80;75.07
60918;BME280;46792;38.854;-9.384;2023-03-16T11:20:45;98851.78;;;18.83;74.50
60918;BME280;46792;38.854;-9.384;2023-03-16T11:22:47;98855.09;;;18.89;73.45
60918;BME280;46792;38.854;-9.384;2023-03-16T11:27:14;98843.44;;;18.80;70.71
60918;BME280;46792;38.854;-9.384;2023-03-16T11:29:23;98849.03;;;18.83;71.86
60918;BME280;46792;38.854;-9.384;2023-03-16T11:31:40;98841.13;;;19.03;70.93
60918;BME280;46792;38.854;-9.384;2023-03-16T11:33:49;98830.72;;;19.30;71.00
60918;BME280;46792;38.854;-9.384;2023-03-16T11:36:07;98828.66;;;19.14;69.66
60918;BME280;46792;38.854;-9.384;2023-03-16T11:40:46;98838.44;;;19.15;68.39
60918;BME280;46792;38.854;-9.384;2023-03-16T11:50:05;98841.34;;;19.56;67.34